Time;durP1;ratioP1;P1;durP2;ratioP2;P2;SDS_P1;SDS_P2;PMS_P1;PMS_P2;Temp;Humidity;BMP_temperature;BMP_pressure;BME280_temperature;BME280_humidity;BME280_pressure;Samples;Min_cycle;Max_cycle;Signal;HPM_P1;HPM_P2
2023/07/02 00:00:31;;;;;;;1.13;0.73;;;;;;;32.78;20.85;101259.22;4989952;28;20056;-71
2023/07/02 00:03:02;;;;;;;3.33;0.80;;;;;;;32.83;21.70;101258.97;4989480;28;20046;-73
2023/07/02 00:05:33;;;;;;;3.78;0.80;;;;;;;32.87;20.69;101260.50;4990039;28;20050;-71
2023/07/02 00:08:01;;;;;;;1.73;1.00;;;;;;;32.83;19.93;101267.00;4989499;28;20942;-71
2023/07/02 00:10:30;;;;;;;0.93;0.60;;;;;;;32.68;19.34;101260.66;4990859;28;20524;-72
2023/07/02 00:12:58;;;;;;;2.60;0.85;;;;;;;32.64;20.83;101259.09;4990425;28;20081;-72
2023/07/02 00:15:27;;;;;;;1.00;0.80;;;;;;;32.68;21.43;101258.84;4990989;28;20097;-72
2023/07/02 00:17:57;;;;;;;4.10;1.10;;;;;;;32.72;21.00;101262.22;4981871;28;20050;-72
2023/07/02 00:20:27;;;;;;;1.60;0.90;;;;;;;32.69;20.57;101257.91;4990974;28;20050;-74
2023/07/02 00:22:58;;;;;;;1.48;0.90;;;;;;;32.57;20.92;101247.84;4989184;28;20042;-73
2023/07/02 00:25:26;;;;;;;1.35;0.85;;;;;;;32.38;20.92;101244.44;4993975;28;20046;-72
2023/07/02 00:27:55;;;;;;;4.38;1.42;;;;;;;32.27;20.53;101251.22;4992853;28;20101;-72
2023/07/02 00:30:23;;;;;;;0.82;0.70;;;;;;;32.20;21.13;101255.16;4993376;28;20065;-74
2023/07/02 00:32:52;;;;;;;1.38;0.80;;;;;;;32.15;21.37;101257.25;4988686;28;20054;-73
2023/07/02 00:35:20;;;;;;;2.58;0.80;;;;;;;32.10;22.07;101246.78;4988727;28;20050;-71
2023/07/02 00:37:49;;;;;;;1.13;0.88;;;;;;;32.12;21.21;101252.06;4990603;28;20499;-71
2023/07/02 00:40:19;;;;;;;3.13;0.85;;;;;;;32.15;21.28;101241.16;4988335;28;20062;-71
2023/07/02 00:42:48;;;;;;;3.28;1.00;;;;;;;32.18;20.81;101243.69;4989743;28;20052;-71
2023/07/02 00:45:17;;;;;;;6.32;1.15;;;;;;;32.17;21.36;101236.59;4992442;28;20085;-73
2023/07/02 00:47:46;;;;;;;1.42;0.90;;;;;;;32.21;21.60;101242.63;4992555;28;20057;-72
2023/07/02 00:50:15;;;;;;;1.50;0.82;;;;;;;32.23;21.26;101235.41;4987763;28;20852;-70
2023/07/02 00:52:44;;;;;;;2.38;0.90;;;;;;;32.21;21.59;101239.97;4991957;28;20038;-71
2023/07/02 00:55:12;;;;;;;1.58;0.80;;;;;;;32.19;21.53;101237.38;4991507;28;20087;-71
2023/07/02 00:57:46;;;;;;;2.55;0.68;;;;;;;32.16;21.24;101236.69;4989582;28;20053;-68
2023/07/02 01:00:15;;;;;;;1.73;0.70;;;;;;;32.07;21.00;101232.66;4985922;28;20053;-70
2023/07/02 01:02:45;;;;;;;1.60;0.90;;;;;;;32.02;21.42;101234.72;4987927;28;20051;-67
2023/07/02 01:05:17;;;;;;;1.08;0.70;;;;;;;31.97;21.06;101231.44;4989210;28;20479;-70
2023/07/02 01:07:45;;;;;;;1.42;0.80;;;;;;;31.94;21.14;101230.63;4975610;28;20057;-68
2023/07/02 01:10:14;;;;;;;1.42;0.80;;;;;;;31.97;21.86;101228.75;4985379;28;20046;-69
2023/07/02 01:12:44;;;;;;;1.10;0.70;;;;;;;31.87;20.64;101223.00;4991026;28;20058;-69
2023/07/02 01:15:13;;;;;;;2.65;0.77;;;;;;;31.83;22.10;101232.13;4987433;28;20054;-69
2023/07/02 01:17:42;;;;;;;1.55;0.80;;;;;;;31.77;22.64;101235.97;4986265;28;20050;-69
2023/07/02 01:20:17;;;;;;;1.33;0.82;;;;;;;31.71;22.08;101230.97;4980084;28;20073;-69
2023/07/02 01:22:45;;;;;;;2.85;0.80;;;;;;;31.61;22.42;101219.00;4984345;28;20102;-69
2023/07/02 01:25:16;;;;;;;1.83;0.68;;;;;;;31.38;22.70;101217.47;4986467;28;20046;-70
2023/07/02 01:27:45;;;;;;;1.70;0.73;;;;;;;31.31;22.61;101227.59;4998107;28;20050;-68
2023/07/02 01:30:14;;;;;;;1.02;0.50;;;;;;;31.30;23.41;101231.22;4990210;28;20058;-69
2023/07/02 01:32:42;;;;;;;2.25;0.63;;;;;;;31.19;22.86;101229.06;4993839;28;20049;-69
2023/07/02 01:35:13;;;;;;;2.70;0.60;;;;;;;31.09;23.75;101231.34;4991729;28;20133;-69
2023/07/02 01:37:41;;;;;;;0.85;0.50;;;;;;;31.04;23.45;101233.38;4991688;28;20061;-70
2023/07/02 01:40:11;;;;;;;2.25;0.63;;;;;;;30.98;23.08;101222.97;4988426;28;20046;-69
2023/07/02 01:42:40;;;;;;;3.25;0.70;;;;;;;30.91;23.29;101224.22;4984972;28;20046;-67
2023/07/02 01:45:10;;;;;;;1.52;0.85;;;;;;;30.83;24.21;101221.91;4988691;28;20058;-68
2023/07/02 01:47:38;;;;;;;1.65;0.50;;;;;;;30.78;24.79;101223.03;4986321;28;20117;-69
2023/07/02 01:50:08;;;;;;;1.38;0.43;;;;;;;30.69;23.44;101225.22;4984175;28;20477;-69
2023/07/02 01:52:38;;;;;;;2.70;0.60;;;;;;;30.59;24.01;101237.25;4986958;28;20629;-69
2023/07/02 01:55:07;;;;;;;2.33;0.80;;;;;;;30.47;24.29;101232.50;4988209;28;20146;-71
2023/07/02 01:57:36;;;;;;;1.48;0.60;;;;;;;30.38;24.54;101235.59;4989004;28;20050;-69
2023/07/02 02:00:06;;;;;;;1.00;0.60;;;;;;;30.33;24.68;101232.25;4988221;28;20062;-70
2023/07/02 02:02:35;;;;;;;1.60;0.70;;;;;;;30.16;23.80;101230.31;4987513;28;20055;-69
2023/07/02 02:05:03;;;;;;;0.93;0.50;;;;;;;30.04;24.68;101229.06;4990145;28;20074;-68
2023/07/02 02:07:32;;;;;;;3.28;0.70;;;;;;;29.95;25.48;101232.16;4985505;28;20100;-67
2023/07/02 02:10:02;;;;;;;3.75;0.60;;;;;;;29.86;25.26;101234.28;4987688;28;20115;-69
2023/07/02 02:12:31;;;;;;;1.55;0.60;;;;;;;29.75;24.36;101230.34;4995196;28;20126;-71
2023/07/02 02:15:00;;;;;;;1.10;0.50;;;;;;;29.62;25.88;101235.31;4987180;28;20097;-69
2023/07/02 02:17:28;;;;;;;1.13;0.60;;;;;;;29.55;26.35;101223.16;4986867;28;20116;-69
2023/07/02 02:19:57;;;;;;;0.70;0.50;;;;;;;29.48;25.42;101227.00;4985895;28;20038;-68
2023/07/02 02:22:25;;;;;;;0.93;0.50;;;;;;;29.38;25.75;101231.88;4987787;28;20496;-67
2023/07/02 02:24:54;;;;;;;1.83;0.70;;;;;;;29.33;26.27;101236.53;4985813;28;20528;-68
2023/07/02 02:27:24;;;;;;;1.00;0.70;;;;;;;29.23;25.74;101234.25;4997803;28;20496;-70
2023/07/02 02:29:52;;;;;;;1.25;0.70;;;;;;;29.12;26.07;101239.16;4987732;28;20050;-70
2023/07/02 02:32:21;;;;;;;5.72;0.70;;;;;;;29.02;26.61;101241.28;4988459;28;20485;-71
2023/07/02 02:34:50;;;;;;;1.05;0.60;;;;;;;28.91;26.63;101231.97;4989771;28;20042;-73
2023/07/02 02:37:18;;;;;;;1.63;0.60;;;;;;;28.74;27.23;101233.50;4987090;28;20521;-72
2023/07/02 02:39:46;;;;;;;1.42;0.50;;;;;;;28.70;27.36;101231.00;4986611;28;20042;-70
2023/07/02 02:42:15;;;;;;;1.15;0.60;;;;;;;28.67;27.66;101239.97;4988792;28;20096;-70
2023/07/02 02:44:45;;;;;;;1.02;0.60;;;;;;;28.60;27.60;101238.50;4982694;28;20050;-72
2023/07/02 02:47:14;;;;;;;1.90;0.63;;;;;;;28.52;27.71;101236.13;4992032;28;20046;-71
2023/07/02 02:49:43;;;;;;;2.58;0.85;;;;;;;28.40;27.64;101231.22;4989427;28;20042;-71
2023/07/02 02:52:11;;;;;;;1.00;0.45;;;;;;;28.18;27.36;101232.00;4986315;28;20101;-73
2023/07/02 02:54:40;;;;;;;1.45;0.60;;;;;;;28.05;28.17;101235.19;4987975;28;20088;-72
2023/07/02 02:57:09;;;;;;;0.50;0.40;;;;;;;27.95;28.77;101231.97;4988432;28;20524;-75
2023/07/02 02:59:37;;;;;;;1.52;0.63;;;;;;;27.89;28.94;101237.50;4985303;28;20136;-72
2023/07/02 03:02:07;;;;;;;2.65;0.77;;;;;;;27.73;27.96;101230.03;4989776;28;20054;-72
2023/07/02 03:04:39;;;;;;;0.93;0.52;;;;;;;27.64;28.39;101246.28;4987347;28;20144;-72
2023/07/02 03:07:08;;;;;;;0.80;0.50;;;;;;;27.49;28.47;101230.88;4981305;28;20141;-71
2023/07/02 03:09:37;;;;;;;3.75;0.77;;;;;;;27.40;29.01;101231.16;4986125;28;20054;-72
2023/07/02 03:12:06;;;;;;;3.05;0.60;;;;;;;27.35;28.96;101228.66;4987429;28;20042;-72
2023/07/02 03:14:34;;;;;;;0.60;0.50;;;;;;;27.24;28.84;101222.84;4990440;28;20042;-72
2023/07/02 03:17:03;;;;;;;0.98;0.68;;;;;;;27.16;30.13;101229.22;4987193;28;20082;-70
2023/07/02 03:19:33;;;;;;;1.08;0.60;;;;;;;27.10;29.75;101223.25;4990198;28;20050;-73
2023/07/02 03:22:02;;;;;;;1.10;0.50;;;;;;;27.00;29.39;101232.41;4986844;28;20051;-74
2023/07/02 03:24:30;;;;;;;0.98;0.60;;;;;;;26.94;30.36;101238.81;4985006;28;20050;-71
2023/07/02 03:26:59;;;;;;;0.82;0.52;;;;;;;26.84;30.15;101229.38;4979149;28;20057;-75
2023/07/02 03:29:30;;;;;;;0.70;0.50;;;;;;;26.75;30.53;101233.16;4989319;28;20050;-72
2023/07/02 03:31:58;;;;;;;1.40;0.60;;;;;;;26.65;29.90;101229.06;4986162;28;20042;-73
2023/07/02 03:34:27;;;;;;;1.95;0.50;;;;;;;26.53;30.21;101233.78;4985677;28;20050;-71
2023/07/02 03:36:57;;;;;;;1.10;0.60;;;;;;;26.45;30.23;101224.31;4987810;28;20057;-72
2023/07/02 03:39:25;;;;;;;0.98;0.50;;;;;;;26.40;30.35;101229.75;4987559;28;20570;-71
2023/07/02 03:41:54;;;;;;;0.90;0.70;;;;;;;26.28;30.05;101225.66;4984512;28;20072;-72
2023/07/02 03:44:23;;;;;;;2.17;0.60;;;;;;;26.15;30.07;101229.56;4987703;28;20050;-70
2023/07/02 03:46:51;;;;;;;0.82;0.65;;;;;;;25.97;30.90;101222.97;4990159;28;20046;-71
2023/07/02 03:49:20;;;;;;;2.70;0.50;;;;;;;25.97;30.69;101232.72;4981867;28;20571;-71
2023/07/02 03:51:49;;;;;;;0.98;0.65;;;;;;;25.90;30.90;101232.00;4982545;28;20050;-73
2023/07/02 03:54:19;;;;;;;1.80;0.40;;;;;;;25.85;30.91;101225.94;4986657;28;20615;-74
2023/07/02 03:56:47;;;;;;;1.83;0.68;;;;;;;25.78;31.58;101234.97;4986984;28;20057;-72
2023/07/02 03:59:16;;;;;;;0.60;0.40;;;;;;;25.73;30.96;101244.81;4986297;28;20090;-72
2023/07/02 04:01:44;;;;;;;2.10;0.68;;;;;;;25.67;31.05;101241.41;4981618;28;20157;-71
2023/07/02 04:04:13;;;;;;;2.58;0.55;;;;;;;25.60;31.69;101238.97;4982751;28;20405;-72
2023/07/02 04:06:41;;;;;;;0.90;0.50;;;;;;;25.55;31.16;101235.56;4988130;28;20081;-71
2023/07/02 04:09:10;;;;;;;0.82;0.50;;;;;;;25.51;31.51;101242.69;4987691;28;20055;-71
2023/07/02 04:11:40;;;;;;;1.35;0.57;;;;;;;25.44;32.28;101247.28;4987097;28;20097;-70
2023/07/02 04:14:09;;;;;;;2.83;0.70;;;;;;;25.40;32.40;101247.38;4985461;28;20049;-69
2023/07/02 04:16:37;;;;;;;1.50;0.40;;;;;;;25.30;31.88;101241.44;4989625;28;20054;-70
2023/07/02 04:19:06;;;;;;;0.98;0.60;;;;;;;25.23;32.45;101250.47;4985430;28;20059;-71
2023/07/02 04:21:34;;;;;;;0.90;0.50;;;;;;;25.14;31.92;101254.16;4982265;28;20046;-70
2023/07/02 04:24:03;;;;;;;2.53;0.70;;;;;;;25.08;32.50;101256.94;4982865;28;20042;-70
2023/07/02 04:26:34;;;;;;;0.65;0.40;;;;;;;25.01;32.70;101265.91;4986963;28;20049;-68
2023/07/02 04:29:04;;;;;;;2.95;0.80;;;;;;;24.94;32.27;101259.88;4990181;28;20057;-68
2023/07/02 04:31:39;;;;;;;1.17;0.60;;;;;;;24.88;32.40;101266.19;4986553;28;20055;-71
2023/07/02 04:34:08;;;;;;;0.45;0.40;;;;;;;24.79;32.75;101268.19;4987393;28;20042;-74
2023/07/02 04:36:39;;;;;;;4.97;0.68;;;;;;;24.69;32.45;101267.47;5002196;28;20050;-70
2023/07/02 04:39:07;;;;;;;1.60;0.65;;;;;;;24.57;32.73;101267.75;5000276;28;20553;-70
2023/07/02 04:41:36;;;;;;;3.53;0.60;;;;;;;24.45;33.60;101272.34;4988252;28;20117;-69
2023/07/02 04:44:06;;;;;;;1.85;0.80;;;;;;;24.39;33.52;101272.47;4991287;28;20117;-70
2023/07/02 04:46:35;;;;;;;2.20;0.60;;;;;;;24.32;33.49;101275.25;4991689;28;20062;-70
2023/07/02 04:49:09;;;;;;;1.08;0.60;;;;;;;24.21;33.30;101279.00;4987689;28;20515;-71
2023/07/02 04:51:38;;;;;;;1.40;0.60;;;;;;;24.11;34.20;101281.84;4989911;28;20049;-72
2023/07/02 04:54:06;;;;;;;2.55;0.75;;;;;;;23.97;34.58;101282.94;4992005;28;20436;-70
2023/07/02 04:56:35;;;;;;;1.13;0.60;;;;;;;23.85;34.44;101290.22;4986011;28;20057;-72
2023/07/02 04:59:05;;;;;;;1.60;0.65;;;;;;;23.73;34.85;101301.81;4987747;28;20053;-69
2023/07/02 05:01:34;;;;;;;1.75;0.40;;;;;;;23.59;35.30;101297.66;4991778;28;20426;-72
2023/07/02 05:04:02;;;;;;;1.63;0.52;;;;;;;23.49;35.74;101305.75;4985718;28;20638;-71
2023/07/02 05:06:31;;;;;;;1.13;0.60;;;;;;;23.41;36.02;101308.50;4990732;28;20070;-71
2023/07/02 05:08:59;;;;;;;1.35;0.88;;;;;;;23.28;36.51;101299.88;4990840;28;20521;-70
2023/07/02 05:11:31;;;;;;;1.10;0.60;;;;;;;23.17;36.60;101305.31;4984763;28;20406;-72
2023/07/02 05:13:59;;;;;;;0.97;0.70;;;;;;;23.07;37.17;101311.63;4986288;28;20686;-71
2023/07/02 05:16:30;;;;;;;0.77;0.60;;;;;;;22.96;37.87;101309.06;4992342;28;20058;-71
2023/07/02 05:18:58;;;;;;;1.25;0.50;;;;;;;22.89;37.25;101307.41;4990106;28;20137;-68
2023/07/02 05:21:27;;;;;;;0.93;0.45;;;;;;;22.86;38.23;101312.75;4985489;28;20050;-70
2023/07/02 05:23:55;;;;;;;1.08;0.50;;;;;;;22.83;38.17;101319.81;4988673;28;20053;-70
2023/07/02 05:26:24;;;;;;;2.25;0.60;;;;;;;22.76;38.43;101317.22;4990038;28;20080;-74
2023/07/02 05:28:53;;;;;;;1.35;0.50;;;;;;;22.68;38.29;101310.34;4988080;28;20050;-74
2023/07/02 05:31:21;;;;;;;0.85;0.50;;;;;;;22.59;38.56;101314.81;4987252;28;20065;-72
2023/07/02 05:33:51;;;;;;;1.45;0.50;;;;;;;22.55;38.83;101317.50;4988105;28;20047;-71
2023/07/02 05:36:20;;;;;;;1.00;0.50;;;;;;;22.46;39.18;101321.09;4989834;28;20058;-71
2023/07/02 05:38:49;;;;;;;1.98;0.40;;;;;;;22.37;39.26;101327.34;4986866;28;20054;-73
2023/07/02 05:41:21;;;;;;;5.15;0.30;;;;;;;22.28;39.61;101331.84;4985823;28;20050;-69
2023/07/02 05:43:49;;;;;;;;;;;;;;;22.18;39.33;101331.91;4990004;28;20057;-71
2023/07/02 05:46:21;;;;;;;1.10;0.47;;;;;;;22.12;39.48;101338.97;4989935;28;20384;-69
2023/07/02 05:48:51;;;;;;;4.32;0.52;;;;;;;22.09;39.80;101333.75;4988367;28;20482;-71
2023/07/02 05:51:23;;;;;;;0.95;0.30;;;;;;;22.07;40.15;101331.13;4989109;28;20078;-70
2023/07/02 05:53:51;;;;;;;0.80;0.40;;;;;;;22.08;40.16;101327.59;4992575;28;20137;-69
2023/07/02 05:56:20;;;;;;;1.85;0.38;;;;;;;22.01;40.33;101319.75;4989407;28;20054;-70
2023/07/02 05:58:50;;;;;;;0.60;0.40;;;;;;;21.97;40.88;101321.56;4989566;28;20117;-70
2023/07/02 06:01:18;;;;;;;0.55;0.45;;;;;;;21.90;40.47;101323.38;4988389;28;20137;-70
2023/07/02 06:03:47;;;;;;;0.38;0.30;;;;;;;21.83;41.46;101313.78;4988219;28;20050;-71
2023/07/02 06:06:17;;;;;;;1.48;0.52;;;;;;;21.77;41.31;101313.81;4989546;28;20050;-69
2023/07/02 06:08:46;;;;;;;0.40;0.30;;;;;;;21.70;41.08;101320.00;4988900;28;20054;-68
2023/07/02 06:11:15;;;;;;;1.30;0.40;;;;;;;21.58;41.20;101305.19;4984672;28;20051;-69
2023/07/02 06:13:50;;;;;;;0.38;0.38;;;;;;;21.52;41.52;101313.97;4988493;28;20128;-70
2023/07/02 06:16:18;;;;;;;0.60;0.30;;;;;;;21.42;41.52;101304.41;4987272;28;20054;-69
2023/07/02 06:18:47;;;;;;;0.55;0.38;;;;;;;21.35;42.09;101300.03;4988865;28;20077;-71
2023/07/02 06:21:17;;;;;;;0.65;0.45;;;;;;;21.29;41.88;101306.19;4984307;28;20048;-70
2023/07/02 06:23:46;;;;;;;0.32;0.20;;;;;;;21.20;42.93;101305.38;4989294;28;20073;-69
2023/07/02 06:26:14;;;;;;;0.57;0.45;;;;;;;21.13;42.47;101301.91;4992729;28;20566;-69
2023/07/02 06:28:43;;;;;;;0.30;0.30;;;;;;;21.04;42.70;101302.81;4987076;28;20054;-71
2023/07/02 06:31:13;;;;;;;0.63;0.40;;;;;;;21.02;43.48;101295.84;4990798;28;20669;-70
2023/07/02 06:33:42;;;;;;;1.65;0.35;;;;;;;20.89;43.71;101288.00;4988140;28;20105;-72
2023/07/02 06:36:10;;;;;;;0.38;0.30;;;;;;;20.81;43.19;101294.19;4987375;28;20074;-70
2023/07/02 06:38:41;;;;;;;0.30;0.30;;;;;;;20.74;43.28;101288.06;4989668;28;20058;-71
2023/07/02 06:41:09;;;;;;;1.00;0.60;;;;;;;20.69;43.59;101288.09;4988372;28;20097;-71
2023/07/02 06:43:38;;;;;;;0.47;0.38;;;;;;;20.54;43.91;101295.97;4987223;28;20052;-70
2023/07/02 06:46:06;;;;;;;0.40;0.30;;;;;;;20.44;44.31;101294.28;4989958;28;20049;-71
2023/07/02 06:48:35;;;;;;;0.73;0.35;;;;;;;20.40;45.47;101288.13;4988407;28;20046;-71
2023/07/02 06:51:03;;;;;;;0.55;0.40;;;;;;;20.38;45.84;101294.28;4987802;28;20077;-72
2023/07/02 06:53:32;;;;;;;0.50;0.40;;;;;;;20.28;45.38;101289.03;4988524;28;20042;-71
2023/07/02 06:56:02;;;;;;;0.30;0.22;;;;;;;20.21;45.02;101292.56;4985536;28;20061;-71
2023/07/02 06:58:31;;;;;;;1.42;0.40;;;;;;;20.16;45.56;101282.94;4987711;28;20054;-72
2023/07/02 07:00:59;;;;;;;0.47;0.40;;;;;;;20.12;45.23;101292.59;4988460;28;20042;-70
2023/07/02 07:03:28;;;;;;;0.60;0.38;;;;;;;20.05;45.62;101280.34;4987552;28;20523;-70
2023/07/02 07:05:56;;;;;;;0.20;0.20;;;;;;;20.07;46.34;101291.72;4985228;28;20054;-71
2023/07/02 07:08:25;;;;;;;2.17;0.40;;;;;;;19.99;46.53;101290.84;4986021;28;20042;-70
2023/07/02 07:10:53;;;;;;;0.32;0.30;;;;;;;19.94;47.54;101292.59;4988784;28;20053;-72
2023/07/02 07:13:23;;;;;;;0.60;0.43;;;;;;;19.83;46.86;101290.84;4986699;28;20050;-70
2023/07/02 07:15:52;;;;;;;1.00;0.40;;;;;;;19.78;46.54;101287.34;4990452;28;20116;-70
2023/07/02 07:18:20;;;;;;;1.08;0.40;;;;;;;19.75;46.86;101292.59;4987878;28;20081;-71
2023/07/02 07:20:52;;;;;;;0.55;0.35;;;;;;;19.70;46.95;101298.72;4986344;28;20058;-70
2023/07/02 07:23:21;;;;;;;2.22;0.40;;;;;;;19.67;47.67;101299.56;4995399;28;20080;-73
2023/07/02 07:25:49;;;;;;;0.65;0.30;;;;;;;19.61;47.27;101307.44;4996597;28;20053;-71
2023/07/02 07:28:18;;;;;;;0.75;0.15;;;;;;;19.56;47.46;101296.94;4988022;28;20050;-70
2023/07/02 07:30:48;;;;;;;0.30;0.30;;;;;;;19.53;47.63;101298.69;4989106;28;20074;-69
2023/07/02 07:33:16;;;;;;;0.73;0.30;;;;;;;19.48;47.29;101293.41;4988458;28;20054;-71
2023/07/02 07:35:45;;;;;;;2.05;0.57;;;;;;;19.45;47.86;101299.53;4986466;28;20503;-71
2023/07/02 07:38:15;;;;;;;1.08;0.43;;;;;;;19.44;47.78;101302.16;4985754;28;20105;-69
2023/07/02 07:40:45;;;;;;;1.20;0.40;;;;;;;19.41;47.02;101297.78;4988707;28;20054;-71
2023/07/02 07:43:15;;;;;;;0.98;0.30;;;;;;;19.39;47.71;101304.78;4985977;28;20055;-72
2023/07/02 07:45:44;;;;;;;0.30;0.20;;;;;;;19.37;46.87;101306.50;4986561;28;20066;-73
2023/07/02 07:48:14;;;;;;;0.77;0.15;;;;;;;19.34;46.95;101306.53;4988091;28;20057;-70
2023/07/02 07:50:50;;;;;;;0.40;0.20;;;;;;;19.32;47.71;101303.00;4987482;28;20066;-71
2023/07/02 07:53:18;;;;;;;1.27;0.30;;;;;;;19.31;47.44;101310.88;4982487;28;20126;-71
2023/07/02 07:55:47;;;;;;;0.43;0.30;;;;;;;19.29;47.48;101308.25;4984993;28;20070;-71
2023/07/02 07:58:15;;;;;;;0.50;0.40;;;;;;;19.24;47.53;101309.97;4988090;28;20046;-70
2023/07/02 08:00:44;;;;;;;1.30;0.40;;;;;;;19.17;47.60;101313.47;4986491;28;20515;-71
2023/07/02 08:03:14;;;;;;;0.55;0.22;;;;;;;19.15;47.50;101307.31;4987955;28;20051;-69
2023/07/02 08:05:43;;;;;;;0.38;0.25;;;;;;;19.13;47.84;101309.09;4983771;28;20047;-69
2023/07/02 08:08:11;;;;;;;0.82;0.35;;;;;;;19.10;48.48;101311.69;4984386;28;20046;-67
2023/07/02 08:10:40;;;;;;;0.20;0.20;;;;;;;19.07;47.34;101311.69;4986633;28;20054;-69
2023/07/02 08:13:09;;;;;;;1.48;0.30;;;;;;;19.05;47.62;101309.91;4985941;28;20049;-72
2023/07/02 08:15:39;;;;;;;1.02;0.40;;;;;;;19.00;48.00;101300.31;4992076;28;20100;-70
2023/07/02 08:18:09;;;;;;;1.40;0.38;;;;;;;19.02;47.81;101312.53;4988929;28;20058;-70
2023/07/02 08:20:39;;;;;;;0.47;0.40;;;;;;;18.97;48.38;101301.16;4992767;28;20061;-71
2023/07/02 08:23:08;;;;;;;0.60;0.20;;;;;;;18.95;48.27;101316.03;4989156;28;20046;-69
2023/07/02 08:25:36;;;;;;;0.68;0.30;;;;;;;18.92;48.56;101304.63;4990178;28;20047;-70
2023/07/02 08:28:08;;;;;;;0.70;0.30;;;;;;;18.87;48.21;101307.22;4988349;28;20084;-68
2023/07/02 08:30:37;;;;;;;0.95;0.30;;;;;;;18.87;48.52;101302.00;4986201;28;20480;-70
2023/07/02 08:33:05;;;;;;;0.30;0.30;;;;;;;18.86;48.62;101302.88;4992166;28;20050;-70
2023/07/02 08:35:34;;;;;;;0.30;0.30;;;;;;;18.78;48.93;101305.47;4990861;28;20085;-70
2023/07/02 08:38:04;;;;;;;0.50;0.20;;;;;;;18.76;49.16;101306.28;4991401;28;20050;-71
2023/07/02 08:40:33;;;;;;;0.15;0.13;;;;;;;18.75;48.96;101309.78;4991173;28;20064;-70
2023/07/02 08:43:01;;;;;;;0.65;0.40;;;;;;;18.73;48.89;101303.66;4990418;28;20053;-72
2023/07/02 08:45:30;;;;;;;0.30;0.30;;;;;;;18.68;49.82;101300.13;4986547;28;20065;-70
2023/07/02 08:47:59;;;;;;;0.43;0.30;;;;;;;18.62;49.32;101307.09;4988638;28;20090;-69
2023/07/02 08:50:29;;;;;;;0.30;0.20;;;;;;;18.60;49.73;101300.97;4992168;28;20582;-70
2023/07/02 08:52:58;;;;;;;0.45;0.20;;;;;;;18.56;49.24;101303.56;4988455;28;20050;-72
2023/07/02 08:55:29;;;;;;;0.17;0.17;;;;;;;18.55;49.67;101312.28;4992817;28;20053;-70
2023/07/02 08:58:00;;;;;;;0.20;0.17;;;;;;;18.47;48.95;101298.28;4987494;28;20054;-70
2023/07/02 09:00:30;;;;;;;0.77;0.32;;;;;;;18.49;49.92;101307.91;4988347;28;20046;-70
2023/07/02 09:02:59;;;;;;;0.95;0.32;;;;;;;18.47;50.09;101311.38;4990234;28;20048;-69
2023/07/02 09:05:28;;;;;;;0.32;0.22;;;;;;;18.44;50.08;101309.63;4987791;28;20058;-69
2023/07/02 09:07:56;;;;;;;7.75;0.38;;;;;;;18.42;50.11;101307.00;4991557;28;20050;-70
2023/07/02 09:10:30;;;;;;;0.47;0.20;;;;;;;18.37;49.84;101300.84;4988913;28;20109;-69
2023/07/02 09:13:06;;;;;;;0.45;0.30;;;;;;;18.32;50.93;101305.16;4988047;28;20047;-72
2023/07/02 09:15:39;;;;;;;0.30;0.28;;;;;;;18.32;50.25;101320.00;4991040;28;20116;-70
2023/07/02 09:18:21;;;;;;;0.75;0.30;;;;;;;18.29;51.04;101305.16;4989943;28;20544;-70
2023/07/02 09:20:53;;;;;;;0.30;0.20;;;;;;;18.26;51.12;101305.16;4989365;28;20140;-69
2023/07/02 09:23:22;;;;;;;0.35;0.20;;;;;;;18.20;50.31;101308.59;4989694;28;20504;-70
2023/07/02 09:25:52;;;;;;;0.25;0.22;;;;;;;18.17;50.55;101305.94;4986959;28;20101;-71
2023/07/02 09:28:23;;;;;;;0.63;0.30;;;;;;;18.17;50.54;101313.81;4990868;28;20050;-70
2023/07/02 09:30:56;;;;;;;0.98;0.28;;;;;;;18.14;51.94;101307.66;4988336;28;20054;-70
2023/07/02 09:33:25;;;;;;;1.55;0.40;;;;;;;18.10;51.11;101298.91;4987317;28;20571;-71
2023/07/02 09:35:54;;;;;;;1.90;0.30;;;;;;;18.06;51.35;101291.91;4989176;28;20098;-71
2023/07/02 09:38:24;;;;;;;0.17;0.17;;;;;;;18.04;51.73;101298.88;4986219;28;20054;-70
2023/07/02 09:40:55;;;;;;;0.40;0.30;;;;;;;18.02;51.25;101297.09;4984213;28;20058;-71
2023/07/02 09:43:25;;;;;;;0.30;0.30;;;;;;;18.01;51.62;101301.47;4987643;28;20080;-72
2023/07/02 09:45:57;;;;;;;0.32;0.20;;;;;;;17.99;50.85;101295.34;4990597;28;20047;-69
2023/07/02 09:48:32;;;;;;;0.75;0.22;;;;;;;17.99;50.53;101297.97;4986030;28;20065;-69
2023/07/02 09:51:01;;;;;;;0.10;0.10;;;;;;;17.95;51.43;101298.78;4986565;28;20046;-71
2023/07/02 09:53:30;;;;;;;0.38;0.20;;;;;;;17.94;51.50;101295.31;4989610;28;20043;-70
2023/07/02 09:56:02;;;;;;;0.20;0.15;;;;;;;17.94;51.84;101299.69;4986928;28;20125;-73
2023/07/02 09:58:31;;;;;;;0.17;0.13;;;;;;;17.93;51.73;101295.28;4988905;28;20474;-70
2023/07/02 10:01:00;;;;;;;0.30;0.10;;;;;;;17.90;51.93;101296.16;4985557;28;20057;-71
2023/07/02 10:03:32;;;;;;;0.10;0.10;;;;;;;17.88;51.48;101297.00;4989529;28;20124;-70
2023/07/02 10:06:08;;;;;;;0.93;0.20;;;;;;;17.85;52.17;101305.72;4989098;28;20058;-70
2023/07/02 10:08:36;;;;;;;0.30;0.20;;;;;;;17.83;52.31;101299.59;4987677;28;20047;-70
2023/07/02 10:11:14;;;;;;;0.30;0.08;;;;;;;17.84;52.71;101300.44;4984537;28;20050;-70
2023/07/02 10:13:43;;;;;;;0.65;0.30;;;;;;;17.81;52.22;101303.91;4987280;28;20150;-71
2023/07/02 10:16:12;;;;;;;0.35;0.28;;;;;;;17.74;52.39;101297.72;4987396;28;20101;-70
2023/07/02 10:18:41;;;;;;;1.67;0.20;;;;;;;17.74;52.95;101305.56;4985707;28;20121;-70
2023/07/02 10:21:17;;;;;;;0.20;0.10;;;;;;;17.71;53.38;101289.84;4988707;28;20054;-70
2023/07/02 10:23:45;;;;;;;1.33;0.30;;;;;;;17.68;53.49;101284.56;4989567;28;20514;-72
2023/07/02 10:26:18;;;;;;;0.25;0.22;;;;;;;17.65;53.86;101291.53;4988109;28;20182;-69
2023/07/02 10:28:59;;;;;;;0.73;0.28;;;;;;;17.61;53.57;101293.22;4989944;28;20104;-70
2023/07/02 10:31:28;;;;;;;0.20;0.20;;;;;;;17.56;53.93;101289.72;4983691;28;20156;-71
2023/07/02 10:33:56;;;;;;;0.20;0.20;;;;;;;17.51;53.46;101296.66;4986540;28;20046;-70
2023/07/02 10:36:26;;;;;;;0.50;0.30;;;;;;;17.47;53.59;101295.72;4985187;28;20496;-71
2023/07/02 10:38:55;;;;;;;0.25;0.25;;;;;;;17.47;53.74;101294.84;4987767;28;20077;-71
2023/07/02 10:41:29;;;;;;;0.43;0.22;;;;;;;17.44;54.53;101300.06;4989267;28;20064;-70
2023/07/02 10:44:08;;;;;;;1.35;0.20;;;;;;;17.39;53.71;101297.41;4985090;28;20051;-70
2023/07/02 10:46:44;;;;;;;0.52;0.15;;;;;;;17.36;56.70;101300.88;4986244;28;20054;-71
2023/07/02 10:49:13;;;;;;;0.63;0.30;;;;;;;17.33;55.68;101295.59;4986528;28;20050;-69
2023/07/02 10:51:41;;;;;;;0.52;0.30;;;;;;;17.31;56.04;101292.06;4986297;28;20081;-70
2023/07/02 10:54:10;;;;;;;0.20;0.10;;;;;;;17.28;56.42;101296.41;4987385;28;20535;-71
2023/07/02 10:56:43;;;;;;;1.58;0.25;;;;;;;17.23;56.21;101296.38;4988134;28;20050;-70
2023/07/02 10:59:11;;;;;;;0.25;0.25;;;;;;;17.20;55.94;101296.31;4987015;28;20100;-70
2023/07/02 11:01:40;;;;;;;0.45;0.30;;;;;;;17.17;56.41;101293.69;4990223;28;20062;-70
2023/07/02 11:04:10;;;;;;;0.50;0.30;;;;;;;17.15;56.21;101290.16;4989771;28;20499;-70
2023/07/02 11:06:39;;;;;;;0.70;0.30;;;;;;;17.11;56.63;101290.97;4987487;28;20494;-70
2023/07/02 11:09:20;;;;;;;2.25;0.40;;;;;;;17.06;56.61;101292.69;4988912;28;20062;-70
2023/07/02 11:11:55;;;;;;;0.25;0.25;;;;;;;17.05;56.14;101291.81;4983753;28;20042;-70
2023/07/02 11:14:34;;;;;;;0.65;0.40;;;;;;;17.03;56.89;101290.91;4990548;28;20057;-70
2023/07/02 11:17:05;;;;;;;0.55;0.30;;;;;;;16.98;56.91;101289.97;4986993;28;20125;-69
2023/07/02 11:19:34;;;;;;;0.30;0.30;;;;;;;16.92;56.64;101290.78;4988016;28;20057;-70
2023/07/02 11:22:03;;;;;;;0.40;0.38;;;;;;;16.89;56.50;101290.75;4986108;28;20520;-70
2023/07/02 11:24:34;;;;;;;0.90;0.47;;;;;;;16.86;57.68;101289.81;4989226;28;20074;-70
2023/07/02 11:27:05;;;;;;;0.40;0.30;;;;;;;16.79;57.53;101283.66;4986544;28;20046;-70
2023/07/02 11:29:34;;;;;;;0.45;0.20;;;;;;;16.76;58.26;101283.56;4983265;28;20050;-70
2023/07/02 11:32:10;;;;;;;0.40;0.28;;;;;;;16.71;58.49;101291.34;4990769;28;20046;-69
2023/07/02 11:34:41;;;;;;;0.20;0.20;;;;;;;16.66;58.94;101289.56;4984599;28;20047;-69